createdAt,value
2024-01-20T00:04:43.215Z,2.97
2024-01-20T00:10:23.569Z,3.25
2024-01-20T00:16:04.267Z,3.50
2024-01-20T00:21:45.766Z,3.10
2024-01-20T00:27:26.048Z,3.47
2024-01-20T00:33:07.463Z,4.15
2024-01-20T00:38:49.474Z,4.47
2024-01-20T00:44:29.550Z,5.32
2024-01-20T00:50:10.443Z,5.10
2024-01-20T00:55:51.988Z,5.30
2024-01-20T01:01:31.856Z,5.35
2024-01-20T01:07:12.483Z,5.43
2024-01-20T01:12:54.462Z,6.10
2024-01-20T01:18:34.666Z,6.13
2024-01-20T01:24:15.163Z,7.30
2024-01-20T01:29:56.675Z,5.90
2024-01-20T01:35:36.846Z,6.90
2024-01-20T01:41:17.165Z,6.10
2024-01-20T01:46:58.784Z,6.55
2024-01-20T01:52:39.648Z,6.75
2024-01-20T01:58:19.884Z,6.47
2024-01-20T02:04:01.482Z,7.35
2024-01-20T02:09:42.637Z,7.18
2024-01-20T02:15:23.879Z,7.05
2024-01-20T02:21:07.759Z,7.75
2024-01-20T02:26:49.443Z,7.03
2024-01-20T02:32:29.985Z,8.48
2024-01-20T02:38:09.962Z,8.10
2024-01-20T02:43:51.647Z,8.13
2024-01-20T02:49:32.331Z,9.15
2024-01-20T02:55:12.700Z,8.10
2024-01-20T03:00:54.585Z,10.07
2024-01-20T03:06:34.714Z,8.77
2024-01-20T03:12:14.963Z,9.23
2024-01-20T03:17:56.878Z,8.90
2024-01-20T03:23:37.293Z,9.93
2024-01-20T03:29:18.054Z,10.20
2024-01-20T03:34:59.993Z,10.27
2024-01-20T03:40:39.893Z,9.80
2024-01-20T03:46:20.106Z,9.30
2024-01-20T03:52:01.830Z,11.98
2024-01-20T03:57:41.835Z,12.55
2024-01-20T04:03:22.001Z,13.32
2024-01-20T04:09:03.633Z,10.23
2024-01-20T04:14:43.491Z,12.57
2024-01-20T04:20:23.735Z,12.55
2024-01-20T04:26:05.979Z,14.02
2024-01-20T04:31:46.256Z,14.00
2024-01-20T04:37:26.434Z,14.82
2024-01-20T04:43:08.099Z,15.48
2024-01-20T04:48:48.190Z,15.88
2024-01-20T04:54:28.691Z,15.55
2024-01-20T05:00:11.531Z,15.65
2024-01-20T05:05:51.778Z,13.93
2024-01-20T05:11:31.945Z,15.82
2024-01-20T05:17:13.418Z,15.52
2024-01-20T05:22:53.532Z,16.25
2024-01-20T05:28:33.985Z,14.15
2024-01-20T05:34:16.085Z,17.25
2024-01-20T05:39:56.799Z,15.95
2024-01-20T05:45:36.925Z,16.15
2024-01-20T05:51:18.541Z,15.40
2024-01-20T05:56:59.008Z,12.63
2024-01-20T06:02:39.356Z,16.15
2024-01-20T06:08:21.164Z,14.80
2024-01-20T06:14:01.048Z,14.75
2024-01-20T06:19:41.439Z,15.63
2024-01-20T06:25:23.129Z,14.80
2024-01-20T06:31:03.613Z,15.18
2024-01-20T06:36:43.947Z,15.90
2024-01-20T06:42:25.622Z,17.67
2024-01-20T06:48:06.623Z,18.58
2024-01-20T06:53:46.938Z,18.75
2024-01-20T06:59:28.645Z,15.68
2024-01-20T07:05:09.386Z,15.55
2024-01-20T07:10:49.164Z,15.80
2024-01-20T07:16:30.956Z,16.23
2024-01-20T07:22:10.996Z,17.05
2024-01-20T07:27:51.514Z,17.70
2024-01-20T07:33:33.607Z,16.52
2024-01-20T07:39:13.944Z,18.13
2024-01-20T07:44:54.144Z,17.40
2024-01-20T07:50:35.692Z,17.38
2024-01-20T07:56:15.642Z,17.80
2024-01-20T08:01:56.044Z,18.00
2024-01-20T08:07:38.125Z,15.52
2024-01-20T08:13:17.959Z,16.30
2024-01-20T08:18:58.410Z,14.40
2024-01-20T08:24:40.038Z,17.65
2024-01-20T08:30:20.222Z,16.33
2024-01-20T08:36:00.332Z,17.70
2024-01-20T08:41:41.987Z,15.68
2024-01-20T08:47:21.740Z,14.63
2024-01-20T08:53:02.275Z,14.88
2024-01-20T08:58:43.945Z,15.25
2024-01-20T09:04:23.982Z,15.00
2024-01-20T09:10:04.717Z,14.43
2024-01-20T09:15:46.541Z,15.07
2024-01-20T09:21:26.940Z,15.00
2024-01-20T09:27:07.451Z,14.63
2024-01-20T09:32:49.206Z,13.75
2024-01-20T09:38:29.769Z,15.55
2024-01-20T09:44:10.629Z,14.38
2024-01-20T09:49:52.352Z,16.27
2024-01-20T09:55:32.161Z,14.52
2024-01-20T10:01:13.014Z,14.23
2024-01-20T10:06:54.921Z,12.27
2024-01-20T10:12:35.213Z,15.82
2024-01-20T10:18:15.367Z,16.52
2024-01-20T10:23:57.108Z,15.43
2024-01-20T10:29:37.489Z,15.73
2024-01-20T10:35:18.763Z,14.18
2024-01-20T10:41:02.070Z,15.85
2024-01-20T10:46:46.999Z,15.80
2024-01-20T10:52:27.402Z,15.10
2024-01-20T10:58:11.456Z,14.85
2024-01-20T11:03:52.319Z,15.00
2024-01-20T11:09:32.821Z,15.27
2024-01-20T11:15:18.460Z,15.48
2024-01-20T11:20:59.657Z,14.32
2024-01-20T11:26:39.908Z,16.08
2024-01-20T11:32:22.905Z,12.40
2024-01-20T11:38:04.466Z,14.88
2024-01-20T11:43:45.946Z,14.23
2024-01-20T11:49:27.466Z,15.45
2024-01-20T11:55:08.822Z,14.38
2024-01-20T12:00:51.450Z,13.73
2024-01-20T12:06:36.467Z,13.27
2024-01-20T12:12:18.264Z,14.55
2024-01-20T12:17:58.472Z,12.85
2024-01-20T12:23:41.713Z,14.07
2024-01-20T12:29:22.186Z,13.95
2024-01-20T12:35:03.026Z,11.35
2024-01-20T12:40:44.411Z,13.10
2024-01-20T12:46:24.223Z,13.88
2024-01-20T12:52:05.525Z,13.82
2024-01-20T12:57:47.359Z,11.45
2024-01-20T13:03:28.056Z,12.25
2024-01-20T13:09:08.553Z,13.52
2024-01-20T13:14:50.068Z,11.13
2024-01-20T13:20:30.496Z,10.82
2024-01-20T13:26:10.981Z,14.50
2024-01-20T13:31:53.062Z,11.57
2024-01-20T13:37:33.114Z,13.05
2024-01-20T13:43:13.431Z,14.07
2024-01-20T13:48:55.187Z,12.52
2024-01-20T13:54:35.795Z,11.48
2024-01-20T14:00:16.604Z,12.70
2024-01-20T14:05:58.335Z,12.32
2024-01-20T14:11:38.893Z,14.70
2024-01-20T14:17:19.440Z,14.25
2024-01-20T14:23:01.251Z,14.43
2024-01-20T14:28:41.606Z,13.60
2024-01-20T14:34:22.483Z,13.85
2024-01-20T14:40:05.433Z,11.90
2024-01-20T14:45:45.588Z,13.65
2024-01-20T14:51:26.042Z,13.93
2024-01-20T14:57:07.794Z,13.77
2024-01-20T15:02:47.959Z,11.57
2024-01-20T15:08:28.345Z,13.00
2024-01-20T15:14:10.292Z,12.93
2024-01-20T15:19:50.330Z,9.90
2024-01-20T15:25:30.342Z,12.20
2024-01-20T15:31:12.189Z,11.75
2024-01-20T15:36:52.660Z,11.68
2024-01-20T15:42:33.323Z,11.35
2024-01-20T15:48:15.181Z,11.07
2024-01-20T15:53:55.540Z,12.70
2024-01-20T15:59:35.978Z,14.18
2024-01-20T16:05:17.799Z,11.25
2024-01-20T16:10:58.390Z,12.95
2024-01-20T16:16:38.593Z,12.02
2024-01-20T16:22:20.470Z,12.18
2024-01-20T16:28:00.542Z,10.63
2024-01-20T16:33:41.158Z,13.07
2024-01-20T16:39:23.150Z,13.60
2024-01-20T16:45:03.690Z,13.00
2024-01-20T16:50:44.082Z,12.13
2024-01-20T16:56:25.600Z,12.27
2024-01-20T17:02:07.587Z,11.77
2024-01-20T17:07:48.970Z,11.98
2024-01-20T17:13:30.853Z,11.27
2024-01-20T17:19:11.507Z,12.20
2024-01-20T17:24:51.872Z,11.80
2024-01-20T17:30:33.722Z,12.15
2024-01-20T17:36:14.042Z,11.68
2024-01-20T17:41:54.402Z,8.77
2024-01-20T17:47:36.601Z,11.48
2024-01-20T17:53:16.906Z,7.35
2024-01-20T17:58:57.138Z,12.02
2024-01-20T18:04:38.800Z,12.07
2024-01-20T18:10:19.816Z,10.60
2024-01-20T18:16:00.158Z,11.27
2024-01-20T18:21:45.535Z,10.90
2024-01-20T18:27:25.625Z,11.00
2024-01-20T18:33:06.377Z,11.13
2024-01-20T18:38:48.575Z,11.10
2024-01-20T18:44:29.525Z,9.23
2024-01-20T18:50:10.290Z,11.10
2024-01-20T18:55:51.817Z,11.40
2024-01-20T19:01:31.919Z,10.10
2024-01-20T19:07:12.165Z,10.88
2024-01-20T19:12:53.830Z,10.43
2024-01-20T19:18:34.005Z,10.98
2024-01-20T19:24:14.267Z,10.02
2024-01-20T19:29:56.346Z,9.93
2024-01-20T19:35:36.547Z,10.70
2024-01-20T19:41:16.713Z,10.20
2024-01-20T19:46:58.307Z,9.82
2024-01-20T19:52:38.537Z,8.82
2024-01-20T19:58:18.571Z,8.85
2024-01-20T20:04:00.571Z,8.13
2024-01-20T20:09:41.384Z,8.63
2024-01-20T20:15:21.213Z,9.73
2024-01-20T20:21:02.854Z,9.18
2024-01-20T20:26:44.218Z,9.40
2024-01-20T20:32:24.928Z,10.05
2024-01-20T20:38:06.845Z,9.40
2024-01-20T20:43:46.850Z,8.80
2024-01-20T20:49:27.191Z,9.00
2024-01-20T20:55:10.266Z,9.15
2024-01-20T21:00:50.843Z,9.25
2024-01-20T21:06:31.022Z,9.18
2024-01-20T21:12:12.637Z,9.35
2024-01-20T21:17:52.702Z,8.68
2024-01-20T21:23:34.288Z,9.25
2024-01-20T21:29:15.694Z,8.43
2024-01-20T21:34:56.255Z,8.05
2024-01-20T21:40:37.206Z,8.05
2024-01-20T21:46:23.057Z,8.63
2024-01-20T21:52:03.821Z,7.70
2024-01-20T21:57:43.768Z,8.05
2024-01-20T22:03:25.391Z,7.97
2024-01-20T22:09:05.725Z,6.28
2024-01-20T22:14:46.182Z,7.43
2024-01-20T22:20:27.992Z,7.05
2024-01-20T22:26:07.954Z,8.07
2024-01-20T22:31:48.062Z,7.32
2024-01-20T22:37:31.532Z,6.55
2024-01-20T22:43:11.708Z,6.80
2024-01-20T22:48:52.195Z,5.45
2024-01-20T22:54:33.925Z,6.63
2024-01-20T23:00:14.652Z,6.82
2024-01-20T23:05:54.473Z,6.45
2024-01-20T23:11:36.069Z,6.00
2024-01-20T23:17:16.323Z,5.78
2024-01-20T23:22:56.243Z,5.47
2024-01-20T23:28:37.907Z,5.57
2024-01-20T23:34:18.032Z,5.20
2024-01-20T23:39:58.379Z,7.25
2024-01-20T23:45:40.379Z,6.40
2024-01-20T23:51:20.430Z,7.25
2024-01-20T23:57:00.543Z,6.43
